DTTZ

Tozeur Nefta International Airport

Tozeur, Tunisia
METAR DTTZ 210100Z 05010KT CAVOK 27/15 Q1012 NOSIG
Observed Flight Rules
Aug-21 @ 01:00 UTC (3 hours ago) Visual Flight Rules
Wind Visibility Clouds
50° at 10 knots 10,000+ meters
  • Clear skies
Temperatures Readings
Current 27°C / 81°F
Dewpoint 15°C / 59°F
Humidity 48%
Altimeter 29.88" Hg
Pressure 1012 hPa
Elevation 93
METAR DTTZ 210100Z 05010KT CAVOK 27/15 Q1012 NOSIG
Observed Flight Rules
Aug-21 @ 01:00 UTC
(3 hours ago)
VFR
Wind Visibility
50° at 10 knots 10,000+ meters
Clouds
  • Clear skies
Temperature Dewpoint
27°C / 81°F 15°C / 59°F
Humidity Altimeter Pressure
48% 29.88" Hg 1012 hPa